sensor_id;sensor_type;location;lat;lon;timestamp;temperature;humidity
75985;DHT22;65033;44.660;37.758;2023-04-06T00:00:19;10.55;97.61
75985;DHT22;65033;44.660;37.758;2023-04-06T00:01:29;10.58;90.77
75985;DHT22;65033;44.660;37.758;2023-04-06T00:02:38;10.59;93.25
75985;DHT22;65033;44.660;37.758;2023-04-06T00:03:41;10.63;92.30
75985;DHT22;65033;44.660;37.758;2023-04-06T00:04:48;10.60;96.45
75985;DHT22;65033;44.660;37.758;2023-04-06T00:05:54;10.60;92.63
75985;DHT22;65033;44.660;37.758;2023-04-06T00:06:58;10.62;91.68
75985;DHT22;65033;44.660;37.758;2023-04-06T00:08:02;10.66;96.46
75985;DHT22;65033;44.660;37.758;2023-04-06T00:09:06;10.67;94.81
75985;DHT22;65033;44.660;37.758;2023-04-06T00:10:09;10.71;96.82
75985;DHT22;65033;44.660;37.758;2023-04-06T00:11:13;10.67;97.05
75985;DHT22;65033;44.660;37.758;2023-04-06T00:12:17;10.65;98.39
75985;DHT22;65033;44.660;37.758;2023-04-06T00:13:21;10.59;99.10
75985;DHT22;65033;44.660;37.758;2023-04-06T00:14:25;10.59;95.88
75985;DHT22;65033;44.660;37.758;2023-04-06T00:15:29;10.56;96.42
75985;DHT22;65033;44.660;37.758;2023-04-06T00:16:32;10.52;94.78
75985;DHT22;65033;44.660;37.758;2023-04-06T00:17:37;10.56;96.07
75985;DHT22;65033;44.660;37.758;2023-04-06T00:18:41;10.53;96.07
75985;DHT22;65033;44.660;37.758;2023-04-06T00:19:47;10.52;95.04
75985;DHT22;65033;44.660;37.758;2023-04-06T00:20:50;10.53;98.24
75985;DHT22;65033;44.660;37.758;2023-04-06T00:21:54;10.52;95.44
75985;DHT22;65033;44.660;37.758;2023-04-06T00:22:58;10.54;100.31
75985;DHT22;65033;44.660;37.758;2023-04-06T00:24:01;10.53;98.96
75985;DHT22;65033;44.660;37.758;2023-04-06T00:25:07;10.57;94.35
75985;DHT22;65033;44.660;37.758;2023-04-06T00:26:11;10.59;96.27
75985;DHT22;65033;44.660;37.758;2023-04-06T00:27:19;10.54;95.20
75985;DHT22;65033;44.660;37.758;2023-04-06T00:28:23;10.50;98.46
75985;DHT22;65033;44.660;37.758;2023-04-06T00:29:31;10.49;101.91
75985;DHT22;65033;44.660;37.758;2023-04-06T00:30:35;10.45;98.14
75985;DHT22;65033;44.660;37.758;2023-04-06T00:31:39;10.49;97.07
75985;DHT22;65033;44.660;37.758;2023-04-06T00:32:44;10.50;95.40
75985;DHT22;65033;44.660;37.758;2023-04-06T00:33:48;10.49;98.28
75985;DHT22;65033;44.660;37.758;2023-04-06T00:34:52;10.51;97.45
75985;DHT22;65033;44.660;37.758;2023-04-06T00:35:55;10.55;96.36
75985;DHT22;65033;44.660;37.758;2023-04-06T00:36:59;10.58;95.91
75985;DHT22;65033;44.660;37.758;2023-04-06T00:38:02;10.58;95.28
75985;DHT22;65033;44.660;37.758;2023-04-06T00:39:06;10.55;94.63
75985;DHT22;65033;44.660;37.758;2023-04-06T00:40:10;10.53;95.68
75985;DHT22;65033;44.660;37.758;2023-04-06T00:41:18;10.58;96.39
75985;DHT22;65033;44.660;37.758;2023-04-06T00:42:23;10.57;94.02
75985;DHT22;65033;44.660;37.758;2023-04-06T00:43:29;10.54;95.47
75985;DHT22;65033;44.660;37.758;2023-04-06T00:44:33;10.51;95.21
75985;DHT22;65033;44.660;37.758;2023-04-06T00:45:38;10.51;96.28
75985;DHT22;65033;44.660;37.758;2023-04-06T00:46:41;10.45;95.93
75985;DHT22;65033;44.660;37.758;2023-04-06T00:47:47;10.42;100.07
75985;DHT22;65033;44.660;37.758;2023-04-06T00:48:50;10.40;99.09
75985;DHT22;65033;44.660;37.758;2023-04-06T00:49:54;10.38;100.17
75985;DHT22;65033;44.660;37.758;2023-04-06T00:50:58;10.40;101.15
75985;DHT22;65033;44.660;37.758;2023-04-06T00:52:02;10.40;99.29
75985;DHT22;65033;44.660;37.758;2023-04-06T00:53:07;10.41;97.29
75985;DHT22;65033;44.660;37.758;2023-04-06T00:54:11;10.42;98.03
75985;DHT22;65033;44.660;37.758;2023-04-06T00:55:15;10.44;97.21
75985;DHT22;65033;44.660;37.758;2023-04-06T00:56:18;10.48;98.10
75985;DHT22;65033;44.660;37.758;2023-04-06T00:57:27;10.54;97.27
75985;DHT22;65033;44.660;37.758;2023-04-06T00:58:31;10.58;101.06
75985;DHT22;65033;44.660;37.758;2023-04-06T00:59:41;10.65;100.16
75985;DHT22;65033;44.660;37.758;2023-04-06T01:00:47;10.67;99.61
75985;DHT22;65033;44.660;37.758;2023-04-06T01:01:55;10.72;96.92
75985;DHT22;65033;44.660;37.758;2023-04-06T01:03:09;10.77;97.47
75985;DHT22;65033;44.660;37.758;2023-04-06T01:04:16;10.78;97.75
75985;DHT22;65033;44.660;37.758;2023-04-06T01:05:20;10.80;95.46
75985;DHT22;65033;44.660;37.758;2023-04-06T01:06:30;10.79;94.86
75985;DHT22;65033;44.660;37.758;2023-04-06T01:07:36;10.84;94.62
75985;DHT22;65033;44.660;37.758;2023-04-06T01:08:51;10.85;94.59
75985;DHT22;65033;44.660;37.758;2023-04-06T01:09:57;10.84;90.50
75985;DHT22;65033;44.660;37.758;2023-04-06T01:11:03;10.80;92.90
75985;DHT22;65033;44.660;37.758;2023-04-06T01:12:07;10.79;92.84
75985;DHT22;65033;44.660;37.758;2023-04-06T01:13:10;10.74;96.04
75985;DHT22;65033;44.660;37.758;2023-04-06T01:14:25;10.73;91.87
75985;DHT22;65033;44.660;37.758;2023-04-06T01:15:33;10.75;92.76
75985;DHT22;65033;44.660;37.758;2023-04-06T01:16:38;10.78;91.10
75985;DHT22;65033;44.660;37.758;2023-04-06T01:17:51;10.73;90.55
75985;DHT22;65033;44.660;37.758;2023-04-06T01:18:56;10.74;90.79
75985;DHT22;65033;44.660;37.758;2023-04-06T01:20:05;10.74;92.31
75985;DHT22;65033;44.660;37.758;2023-04-06T01:21:10;10.75;91.89
75985;DHT22;65033;44.660;37.758;2023-04-06T01:22:39;10.73;96.94
75985;DHT22;65033;44.660;37.758;2023-04-06T01:23:44;10.71;94.91
75985;DHT22;65033;44.660;37.758;2023-04-06T01:24:51;10.69;96.71
75985;DHT22;65033;44.660;37.758;2023-04-06T01:26:02;10.66;95.03
75985;DHT22;65033;44.660;37.758;2023-04-06T01:27:06;10.66;92.77
75985;DHT22;65033;44.660;37.758;2023-04-06T01:28:20;10.64;93.59
75985;DHT22;65033;44.660;37.758;2023-04-06T01:29:44;10.59;93.40
75985;DHT22;65033;44.660;37.758;2023-04-06T01:30:54;10.60;90.64
75985;DHT22;65033;44.660;37.758;2023-04-06T01:32:14;10.56;92.07
75985;DHT22;65033;44.660;37.758;2023-04-06T01:33:24;10.57;91.88
75985;DHT22;65033;44.660;37.758;2023-04-06T01:34:38;10.52;97.00
75985;DHT22;65033;44.660;37.758;2023-04-06T01:35:42;10.53;96.78
75985;DHT22;65033;44.660;37.758;2023-04-06T01:36:51;10.51;99.53
75985;DHT22;65033;44.660;37.758;2023-04-06T01:38:02;10.54;99.39
75985;DHT22;65033;44.660;37.758;2023-04-06T01:39:08;10.55;98.15
75985;DHT22;65033;44.660;37.758;2023-04-06T01:40:14;10.52;98.39
75985;DHT22;65033;44.660;37.758;2023-04-06T01:41:23;10.52;96.44
75985;DHT22;65033;44.660;37.758;2023-04-06T01:42:28;10.49;97.99
75985;DHT22;65033;44.660;37.758;2023-04-06T01:43:33;10.43;95.90
75985;DHT22;65033;44.660;37.758;2023-04-06T01:44:42;10.39;99.74
75985;DHT22;65033;44.660;37.758;2023-04-06T01:45:49;10.37;97.87
75985;DHT22;65033;44.660;37.758;2023-04-06T01:46:55;10.35;98.23
75985;DHT22;65033;44.660;37.758;2023-04-06T01:48:00;10.36;98.60
75985;DHT22;65033;44.660;37.758;2023-04-06T01:49:04;10.33;101.85
75985;DHT22;65033;44.660;37.758;2023-04-06T01:50:10;10.34;98.64
75985;DHT22;65033;44.660;37.758;2023-04-06T01:51:19;10.36;101.67
75985;DHT22;65033;44.660;37.758;2023-04-06T01:52:28;10.37;97.52
75985;DHT22;65033;44.660;37.758;2023-04-06T01:53:33;10.43;98.40
75985;DHT22;65033;44.660;37.758;2023-04-06T01:54:41;10.49;96.88
75985;DHT22;65033;44.660;37.758;2023-04-06T01:55:50;10.52;96.26
75985;DHT22;65033;44.660;37.758;2023-04-06T01:56:59;10.54;102.15
75985;DHT22;65033;44.660;37.758;2023-04-06T01:58:15;10.55;102.53
75985;DHT22;65033;44.660;37.758;2023-04-06T01:59:19;10.52;100.80
75985;DHT22;65033;44.660;37.758;2023-04-06T02:00:23;10.50;102.29
75985;DHT22;65033;44.660;37.758;2023-04-06T02:01:30;10.48;98.87
75985;DHT22;65033;44.660;37.758;2023-04-06T02:02:33;10.46;97.49
75985;DHT22;65033;44.660;37.758;2023-04-06T02:03:41;10.45;97.97
75985;DHT22;65033;44.660;37.758;2023-04-06T02:04:46;10.43;95.76
75985;DHT22;65033;44.660;37.758;2023-04-06T02:05:50;10.42;96.65
75985;DHT22;65033;44.660;37.758;2023-04-06T02:07:06;10.41;96.89
75985;DHT22;65033;44.660;37.758;2023-04-06T02:08:09;10.40;96.04
75985;DHT22;65033;44.660;37.758;2023-04-06T02:09:15;10.40;95.18
75985;DHT22;65033;44.660;37.758;2023-04-06T02:10:19;10.39;97.26
75985;DHT22;65033;44.660;37.758;2023-04-06T02:11:23;10.39;97.29
75985;DHT22;65033;44.660;37.758;2023-04-06T02:12:30;10.38;99.54
75985;DHT22;65033;44.660;37.758;2023-04-06T02:13:33;10.38;96.84
75985;DHT22;65033;44.660;37.758;2023-04-06T02:14:37;10.37;97.03
75985;DHT22;65033;44.660;37.758;2023-04-06T02:15:41;10.39;97.08
75985;DHT22;65033;44.660;37.758;2023-04-06T02:16:44;10.42;101.38
75985;DHT22;65033;44.660;37.758;2023-04-06T02:17:48;10.42;98.78
75985;DHT22;65033;44.660;37.758;2023-04-06T02:18:51;10.42;95.87
75985;DHT22;65033;44.660;37.758;2023-04-06T02:19:55;10.40;96.52
75985;DHT22;65033;44.660;37.758;2023-04-06T02:20:58;10.41;96.21
75985;DHT22;65033;44.660;37.758;2023-04-06T02:22:02;10.42;95.23
75985;DHT22;65033;44.660;37.758;2023-04-06T02:23:06;10.44;96.15
75985;DHT22;65033;44.660;37.758;2023-04-06T02:24:09;10.43;96.59
75985;DHT22;65033;44.660;37.758;2023-04-06T02:25:15;10.46;94.71
75985;DHT22;65033;44.660;37.758;2023-04-06T02:26:18;10.45;99.09
75985;DHT22;65033;44.660;37.758;2023-04-06T02:27:22;10.43;98.77
75985;DHT22;65033;44.660;37.758;2023-04-06T02:28:26;10.42;98.84
75985;DHT22;65033;44.660;37.758;2023-04-06T02:29:29;10.39;97.84
75985;DHT22;65033;44.660;37.758;2023-04-06T02:30:33;10.37;97.48
75985;DHT22;65033;44.660;37.758;2023-04-06T02:31:36;10.36;98.77
75985;DHT22;65033;44.660;37.758;2023-04-06T02:32:41;10.36;97.20
75985;DHT22;65033;44.660;37.758;2023-04-06T02:33:44;10.37;96.62
75985;DHT22;65033;44.660;37.758;2023-04-06T02:34:50;10.37;97.26
75985;DHT22;65033;44.660;37.758;2023-04-06T02:35:55;10.38;96.26
75985;DHT22;65033;44.660;37.758;2023-04-06T02:36:59;10.36;98.15
75985;DHT22;65033;44.660;37.758;2023-04-06T02:38:02;10.34;95.15
75985;DHT22;65033;44.660;37.758;2023-04-06T02:39:06;10.33;95.98
75985;DHT22;65033;44.660;37.758;2023-04-06T02:40:15;10.29;97.63
75985;DHT22;65033;44.660;37.758;2023-04-06T02:41:20;10.28;97.23
75985;DHT22;65033;44.660;37.758;2023-04-06T02:42:24;10.28;96.12
75985;DHT22;65033;44.660;37.758;2023-04-06T02:43:28;10.27;96.17
75985;DHT22;65033;44.660;37.758;2023-04-06T02:44:52;10.25;96.41
75985;DHT22;65033;44.660;37.758;2023-04-06T02:45:58;10.27;93.27
75985;DHT22;65033;44.660;37.758;2023-04-06T02:47:01;10.27;95.94
75985;DHT22;65033;44.660;37.758;2023-04-06T02:48:05;10.28;91.56
75985;DHT22;65033;44.660;37.758;2023-04-06T02:49:09;10.26;93.66
75985;DHT22;65033;44.660;37.758;2023-04-06T02:50:13;10.25;94.77
75985;DHT22;65033;44.660;37.758;2023-04-06T02:51:23;10.27;93.80
75985;DHT22;65033;44.660;37.758;2023-04-06T02:52:30;10.26;93.52
75985;DHT22;65033;44.660;37.758;2023-04-06T02:53:33;10.27;92.14
75985;DHT22;65033;44.660;37.758;2023-04-06T02:54:37;10.28;96.65
75985;DHT22;65033;44.660;37.758;2023-04-06T02:55:42;10.26;96.17
75985;DHT22;65033;44.660;37.758;2023-04-06T02:56:46;10.26;94.10
75985;DHT22;65033;44.660;37.758;2023-04-06T02:57:50;10.29;93.23
75985;DHT22;65033;44.660;37.758;2023-04-06T02:58:56;10.28;93.75
75985;DHT22;65033;44.660;37.758;2023-04-06T03:00:06;10.30;94.78
75985;DHT22;65033;44.660;37.758;2023-04-06T03:01:15;10.29;94.01
75985;DHT22;65033;44.660;37.758;2023-04-06T03:02:23;10.29;94.87
75985;DHT22;65033;44.660;37.758;2023-04-06T03:03:27;10.28;92.65
75985;DHT22;65033;44.660;37.758;2023-04-06T03:04:32;10.26;92.53
75985;DHT22;65033;44.660;37.758;2023-04-06T03:05:37;10.27;93.31
75985;DHT22;65033;44.660;37.758;2023-04-06T03:06:41;10.26;93.14
75985;DHT22;65033;44.660;37.758;2023-04-06T03:07:55;10.24;91.56
75985;DHT22;65033;44.660;37.758;2023-04-06T03:09:15;10.21;92.67
75985;DHT22;65033;44.660;37.758;2023-04-06T03:10:19;10.23;92.68
75985;DHT22;65033;44.660;37.758;2023-04-06T03:11:26;10.20;93.81
75985;DHT22;65033;44.660;37.758;2023-04-06T03:12:32;10.16;95.50
75985;DHT22;65033;44.660;37.758;2023-04-06T03:13:51;10.18;93.59
75985;DHT22;65033;44.660;37.758;2023-04-06T03:14:55;10.16;94.38
75985;DHT22;65033;44.660;37.758;2023-04-06T03:15:59;10.15;93.59
75985;DHT22;65033;44.660;37.758;2023-04-06T03:17:03;10.15;92.75
75985;DHT22;65033;44.660;37.758;2023-04-06T03:18:06;10.15;93.01
75985;DHT22;65033;44.660;37.758;2023-04-06T03:19:15;10.15;93.38
75985;DHT22;65033;44.660;37.758;2023-04-06T03:20:19;10.14;94.99
75985;DHT22;65033;44.660;37.758;2023-04-06T03:21:22;10.14;94.54
75985;DHT22;65033;44.660;37.758;2023-04-06T03:22:28;10.15;94.53
75985;DHT22;65033;44.660;37.758;2023-04-06T03:23:32;10.15;93.40
75985;DHT22;65033;44.660;37.758;2023-04-06T03:24:37;10.18;93.47
75985;DHT22;65033;44.660;37.758;2023-04-06T03:25:40;10.15;94.41
75985;DHT22;65033;44.660;37.758;2023-04-06T03:26:50;10.18;95.44
75985;DHT22;65033;44.660;37.758;2023-04-06T03:27:55;10.18;93.93
75985;DHT22;65033;44.660;37.758;2023-04-06T03:28:58;10.15;93.52
75985;DHT22;65033;44.660;37.758;2023-04-06T03:30:07;10.15;93.87
75985;DHT22;65033;44.660;37.758;2023-04-06T03:31:10;10.15;93.46
75985;DHT22;65033;44.660;37.758;2023-04-06T03:32:41;10.15;94.18
75985;DHT22;65033;44.660;37.758;2023-04-06T03:33:45;10.15;94.55
75985;DHT22;65033;44.660;37.758;2023-04-06T03:34:55;10.19;93.47
75985;DHT22;65033;44.660;37.758;2023-04-06T03:36:00;10.19;95.90
75985;DHT22;65033;44.660;37.758;2023-04-06T03:37:05;10.19;94.97
75985;DHT22;65033;44.660;37.758;2023-04-06T03:38:13;10.16;93.82
75985;DHT22;65033;44.660;37.758;2023-04-06T03:39:17;10.18;93.60
75985;DHT22;65033;44.660;37.758;2023-04-06T03:40:21;10.19;94.29
75985;DHT22;65033;44.660;37.758;2023-04-06T03:41:24;10.24;94.14
75985;DHT22;65033;44.660;37.758;2023-04-06T03:42:50;10.27;92.20
75985;DHT22;65033;44.660;37.758;2023-04-06T03:43:54;10.31;92.33
75985;DHT22;65033;44.660;37.758;2023-04-06T03:44:57;10.35;95.39
75985;DHT22;65033;44.660;37.758;2023-04-06T03:46:01;10.36;93.95
75985;DHT22;65033;44.660;37.758;2023-04-06T03:47:05;10.38;94.47
75985;DHT22;65033;44.660;37.758;2023-04-06T03:48:09;10.41;94.17
75985;DHT22;65033;44.660;37.758;2023-04-06T03:49:13;10.43;93.58
75985;DHT22;65033;44.660;37.758;2023-04-06T03:50:20;10.48;93.37
75985;DHT22;65033;44.660;37.758;2023-04-06T03:51:24;10.53;93.18
75985;DHT22;65033;44.660;37.758;2023-04-06T03:52:28;10.57;92.88
75985;DHT22;65033;44.660;37.758;2023-04-06T03:53:31;10.63;92.34
75985;DHT22;65033;44.660;37.758;2023-04-06T03:54:35;10.64;92.96
75985;DHT22;65033;44.660;37.758;2023-04-06T03:55:39;10.68;91.08
75985;DHT22;65033;44.660;37.758;2023-04-06T03:56:43;10.68;92.35
75985;DHT22;65033;44.660;37.758;2023-04-06T03:57:46;10.67;93.27
75985;DHT22;65033;44.660;37.758;2023-04-06T03:58:51;10.68;92.23
75985;DHT22;65033;44.660;37.758;2023-04-06T03:59:56;10.67;91.98
75985;DHT22;65033;44.660;37.758;2023-04-06T04:01:02;10.67;92.00
75985;DHT22;65033;44.660;37.758;2023-04-06T04:02:07;10.68;92.34
75985;DHT22;65033;44.660;37.758;2023-04-06T04:03:10;10.62;91.24
75985;DHT22;65033;44.660;37.758;2023-04-06T04:04:14;10.56;93.61
75985;DHT22;65033;44.660;37.758;2023-04-06T04:05:17;10.52;94.15
75985;DHT22;65033;44.660;37.758;2023-04-06T04:06:21;10.53;90.50
75985;DHT22;65033;44.660;37.758;2023-04-06T04:07:25;10.51;92.18
75985;DHT22;65033;44.660;37.758;2023-04-06T04:08:28;10.46;92.68
75985;DHT22;65033;44.660;37.758;2023-04-06T04:09:32;10.45;92.26
75985;DHT22;65033;44.660;37.758;2023-04-06T04:10:35;10.46;91.69
75985;DHT22;65033;44.660;37.758;2023-04-06T04:11:39;10.49;91.35
75985;DHT22;65033;44.660;37.758;2023-04-06T04:12:43;10.44;92.96
75985;DHT22;65033;44.660;37.758;2023-04-06T04:13:46;10.43;91.05
75985;DHT22;65033;44.660;37.758;2023-04-06T04:14:51;10.41;91.31
75985;DHT22;65033;44.660;37.758;2023-04-06T04:15:55;10.37;92.57
75985;DHT22;65033;44.660;37.758;2023-04-06T04:17:02;10.37;91.52
75985;DHT22;65033;44.660;37.758;2023-04-06T04:18:06;10.36;93.39
75985;DHT22;65033;44.660;37.758;2023-04-06T04:19:09;10.33;92.57
75985;DHT22;65033;44.660;37.758;2023-04-06T04:20:13;10.30;91.45
75985;DHT22;65033;44.660;37.758;2023-04-06T04:21:17;10.29;93.35
75985;DHT22;65033;44.660;37.758;2023-04-06T04:22:23;10.27;90.47
75985;DHT22;65033;44.660;37.758;2023-04-06T04:23:27;10.27;92.30
75985;DHT22;65033;44.660;37.758;2023-04-06T04:24:30;10.26;92.15
75985;DHT22;65033;44.660;37.758;2023-04-06T04:25:35;10.23;93.98
75985;DHT22;65033;44.660;37.758;2023-04-06T04:26:39;10.24;92.53
75985;DHT22;65033;44.660;37.758;2023-04-06T04:27:43;10.23;94.07
75985;DHT22;65033;44.660;37.758;2023-04-06T04:28:49;10.25;93.30
75985;DHT22;65033;44.660;37.758;2023-04-06T04:29:55;10.27;92.24
75985;DHT22;65033;44.660;37.758;2023-04-06T04:30:59;10.34;93.47
75985;DHT22;65033;44.660;37.758;2023-04-06T04:32:06;10.41;91.90
75985;DHT22;65033;44.660;37.758;2023-04-06T04:33:16;10.49;92.37
75985;DHT22;65033;44.660;37.758;2023-04-06T04:34:22;10.53;90.93
75985;DHT22;65033;44.660;37.758;2023-04-06T04:35:29;10.59;90.75
75985;DHT22;65033;44.660;37.758;2023-04-06T04:36:34;10.65;91.01
75985;DHT22;65033;44.660;37.758;2023-04-06T04:37:41;10.69;91.07
75985;DHT22;65033;44.660;37.758;2023-04-06T04:38:46;10.71;89.19
75985;DHT22;65033;44.660;37.758;2023-04-06T04:39:50;10.75;90.01
75985;DHT22;65033;44.660;37.758;2023-04-06T04:40:54;10.77;87.87
75985;DHT22;65033;44.660;37.758;2023-04-06T04:41:57;10.69;87.94
75985;DHT22;65033;44.660;37.758;2023-04-06T04:43:01;10.65;87.77
75985;DHT22;65033;44.660;37.758;2023-04-06T04:44:11;10.62;89.71
75985;DHT22;65033;44.660;37.758;2023-04-06T04:45:16;10.57;88.09
75985;DHT22;65033;44.660;37.758;2023-04-06T04:46:22;10.57;89.99
75985;DHT22;65033;44.660;37.758;2023-04-06T04:47:27;10.57;90.67
75985;DHT22;65033;44.660;37.758;2023-04-06T04:48:31;10.57;87.77
75985;DHT22;65033;44.660;37.758;2023-04-06T04:49:37;10.58;90.56
75985;DHT22;65033;44.660;37.758;2023-04-06T04:50:43;10.62;90.12
75985;DHT22;65033;44.660;37.758;2023-04-06T04:51:47;10.66;88.41
75985;DHT22;65033;44.660;37.758;2023-04-06T04:53:08;10.68;88.35
75985;DHT22;65033;44.660;37.758;2023-04-06T04:54:12;10.77;88.59
75985;DHT22;65033;44.660;37.758;2023-04-06T04:55:17;10.81;89.43
75985;DHT22;65033;44.660;37.758;2023-04-06T04:56:24;10.82;87.80
75985;DHT22;65033;44.660;37.758;2023-04-06T04:57:33;10.79;85.85
75985;DHT22;65033;44.660;37.758;2023-04-06T04:58:39;10.73;87.63
75985;DHT22;65033;44.660;37.758;2023-04-06T04:59:43;10.68;88.36
75985;DHT22;65033;44.660;37.758;2023-04-06T05:00:54;10.64;88.37
75985;DHT22;65033;44.660;37.758;2023-04-06T05:02:01;10.62;88.06
75985;DHT22;65033;44.660;37.758;2023-04-06T05:03:17;10.65;89.53
75985;DHT22;65033;44.660;37.758;2023-04-06T05:04:29;10.63;90.06
75985;DHT22;65033;44.660;37.758;2023-04-06T05:05:36;10.56;90.09
75985;DHT22;65033;44.660;37.758;2023-04-06T05:06:40;10.54;88.90
75985;DHT22;65033;44.660;37.758;2023-04-06T05:07:44;10.50;88.84
75985;DHT22;65033;44.660;37.758;2023-04-06T05:08:59;10.50;90.59
75985;DHT22;65033;44.660;37.758;2023-04-06T05:10:06;10.46;89.44
75985;DHT22;65033;44.660;37.758;2023-04-06T05:11:15;10.49;89.12
75985;DHT22;65033;44.660;37.758;2023-04-06T05:12:23;10.50;89.89
75985;DHT22;65033;44.660;37.758;2023-04-06T05:13:40;10.51;89.76
75985;DHT22;65033;44.660;37.758;2023-04-06T05:14:54;10.55;89.85
75985;DHT22;65033;44.660;37.758;2023-04-06T05:16:00;10.56;91.44
75985;DHT22;65033;44.660;37.758;2023-04-06T05:17:07;10.57;89.57
75985;DHT22;65033;44.660;37.758;2023-04-06T05:18:18;10.59;89.17
75985;DHT22;65033;44.660;37.758;2023-04-06T05:19:21;10.58;89.81
75985;DHT22;65033;44.660;37.758;2023-04-06T05:20:25;10.57;88.57
75985;DHT22;65033;44.660;37.758;2023-04-06T05:21:28;10.57;89.00
75985;DHT22;65033;44.660;37.758;2023-04-06T05:22:37;10.55;90.67
75985;DHT22;65033;44.660;37.758;2023-04-06T05:23:44;10.58;90.37
75985;DHT22;65033;44.660;37.758;2023-04-06T05:24:48;10.63;89.09
75985;DHT22;65033;44.660;37.758;2023-04-06T05:25:52;10.69;87.81
75985;DHT22;65033;44.660;37.758;2023-04-06T05:26:57;10.72;88.04
75985;DHT22;65033;44.660;37.758;2023-04-06T05:28:01;10.72;89.64
75985;DHT22;65033;44.660;37.758;2023-04-06T05:29:11;10.70;87.04
75985;DHT22;65033;44.660;37.758;2023-04-06T05:30:16;10.68;88.35
75985;DHT22;65033;44.660;37.758;2023-04-06T05:31:25;10.68;87.48
75985;DHT22;65033;44.660;37.758;2023-04-06T05:32:30;10.66;87.55
75985;DHT22;65033;44.660;37.758;2023-04-06T05:33:34;10.66;87.86
75985;DHT22;65033;44.660;37.758;2023-04-06T05:34:42;10.64;87.86
75985;DHT22;65033;44.660;37.758;2023-04-06T05:35:47;10.67;88.51
75985;DHT22;65033;44.660;37.758;2023-04-06T05:36:50;10.68;87.75
75985;DHT22;65033;44.660;37.758;2023-04-06T05:37:57;10.66;87.00
75985;DHT22;65033;44.660;37.758;2023-04-06T05:39:05;10.63;86.80
75985;DHT22;65033;44.660;37.758;2023-04-06T05:40:19;10.62;85.76
75985;DHT22;65033;44.660;37.758;2023-04-06T05:41:26;10.62;86.77
75985;DHT22;65033;44.660;37.758;2023-04-06T05:42:36;10.65;87.61
75985;DHT22;65033;44.660;37.758;2023-04-06T05:43:41;10.66;88.09
75985;DHT22;65033;44.660;37.758;2023-04-06T05:44:44;10.69;89.12
75985;DHT22;65033;44.660;37.758;2023-04-06T05:45:51;10.72;88.18
75985;DHT22;65033;44.660;37.758;2023-04-06T05:46:57;10.72;89.65
75985;DHT22;65033;44.660;37.758;2023-04-06T05:48:01;10.75;88.98
75985;DHT22;65033;44.660;37.758;2023-04-06T05:49:05;10.79;86.67
75985;DHT22;65033;44.660;37.758;2023-04-06T05:50:11;10.77;86.70
75985;DHT22;65033;44.660;37.758;2023-04-06T05:51:15;10.77;87.96
75985;DHT22;65033;44.660;37.758;2023-04-06T05:52:24;10.74;87.35
75985;DHT22;65033;44.660;37.758;2023-04-06T05:53:29;10.71;88.73
75985;DHT22;65033;44.660;37.758;2023-04-06T05:54:35;10.69;90.43
75985;DHT22;65033;44.660;37.758;2023-04-06T05:55:39;10.69;90.79
75985;DHT22;65033;44.660;37.758;2023-04-06T05:56:51;10.72;89.73
75985;DHT22;65033;44.660;37.758;2023-04-06T05:57:54;10.73;91.18
75985;DHT22;65033;44.660;37.758;2023-04-06T05:58:58;10.80;89.04
75985;DHT22;65033;44.660;37.758;2023-04-06T06:00:05;10.90;90.12
75985;DHT22;65033;44.660;37.758;2023-04-06T06:01:25;10.94;88.16
75985;DHT22;65033;44.660;37.758;2023-04-06T06:02:32;10.94;91.28
75985;DHT22;65033;44.660;37.758;2023-04-06T06:03:36;10.93;87.54
75985;DHT22;65033;44.660;37.758;2023-04-06T06:04:39;10.92;87.40
75985;DHT22;65033;44.660;37.758;2023-04-06T06:05:43;10.87;87.86
75985;DHT22;65033;44.660;37.758;2023-04-06T06:06:53;10.84;92.90
75985;DHT22;65033;44.660;37.758;2023-04-06T06:08:06;10.86;89.31
75985;DHT22;65033;44.660;37.758;2023-04-06T06:09:10;10.88;91.60
75985;DHT22;65033;44.660;37.758;2023-04-06T06:10:20;10.96;90.08
75985;DHT22;65033;44.660;37.758;2023-04-06T06:11:23;10.99;90.40
75985;DHT22;65033;44.660;37.758;2023-04-06T06:12:27;11.03;88.83
75985;DHT22;65033;44.660;37.758;2023-04-06T06:13:30;11.07;90.70
75985;DHT22;65033;44.660;37.758;2023-04-06T06:14:35;11.13;89.38
75985;DHT22;65033;44.660;37.758;2023-04-06T06:15:39;11.15;90.09
75985;DHT22;65033;44.660;37.758;2023-04-06T06:16:43;11.20;89.86
75985;DHT22;65033;44.660;37.758;2023-04-06T06:17:51;11.26;89.60
75985;DHT22;65033;44.660;37.758;2023-04-06T06:18:55;11.29;90.21
75985;DHT22;65033;44.660;37.758;2023-04-06T06:19:59;11.30;90.21
75985;DHT22;65033;44.660;37.758;2023-04-06T06:21:04;11.32;86.91
75985;DHT22;65033;44.660;37.758;2023-04-06T06:22:08;11.36;89.27
75985;DHT22;65033;44.660;37.758;2023-04-06T06:23:17;11.36;89.36
75985;DHT22;65033;44.660;37.758;2023-04-06T06:24:23;11.38;88.67
75985;DHT22;65033;44.660;37.758;2023-04-06T06:25:27;11.44;89.62
75985;DHT22;65033;44.660;37.758;2023-04-06T06:26:30;11.52;88.27
75985;DHT22;65033;44.660;37.758;2023-04-06T06:27:35;11.57;90.92
75985;DHT22;65033;44.660;37.758;2023-04-06T06:28:42;11.61;89.12
75985;DHT22;65033;44.660;37.758;2023-04-06T06:29:47;11.62;88.99
75985;DHT22;65033;44.660;37.758;2023-04-06T06:30:51;11.62;91.00
75985;DHT22;65033;44.660;37.758;2023-04-06T06:31:57;11.66;90.28
75985;DHT22;65033;44.660;37.758;2023-04-06T06:33:03;11.68;89.73
75985;DHT22;65033;44.660;37.758;2023-04-06T06:34:07;11.64;89.97
75985;DHT22;65033;44.660;37.758;2023-04-06T06:35:12;11.61;89.35
75985;DHT22;65033;44.660;37.758;2023-04-06T06:36:16;11.60;87.47
75985;DHT22;65033;44.660;37.758;2023-04-06T06:37:21;11.62;88.97
75985;DHT22;65033;44.660;37.758;2023-04-06T06:38:25;11.64;88.17
75985;DHT22;65033;44.660;37.758;2023-04-06T06:39:29;11.70;88.49
75985;DHT22;65033;44.660;37.758;2023-04-06T06:40:33;11.72;88.09
75985;DHT22;65033;44.660;37.758;2023-04-06T06:41:37;11.74;87.52
75985;DHT22;65033;44.660;37.758;2023-04-06T06:42:41;11.76;88.33
75985;DHT22;65033;44.660;37.758;2023-04-06T06:44:01;11.78;87.46
75985;DHT22;65033;44.660;37.758;2023-04-06T06:45:05;11.77;88.03
75985;DHT22;65033;44.660;37.758;2023-04-06T06:46:09;11.72;87.94
75985;DHT22;65033;44.660;37.758;2023-04-06T06:47:15;11.62;88.12
75985;DHT22;65033;44.660;37.758;2023-04-06T06:48:21;11.54;88.03
75985;DHT22;65033;44.660;37.758;2023-04-06T06:49:27;11.55;88.13
75985;DHT22;65033;44.660;37.758;2023-04-06T06:50:32;11.58;89.92